Time;durP1;ratioP1;P1;durP2;ratioP2;P2;SDS_P1;SDS_P2;PMS_P1;PMS_P2;Temp;Humidity;BMP_temperature;BMP_pressure;BME280_temperature;BME280_humidity;BME280_pressure;Samples;Min_cycle;Max_cycle;Signal;HPM_P1;HPM_P2
2022/11/12 00:00:52;;;;;;;13.23;10.00;;;;;;;5.99;100.00;103131.13;5020044;28;20056;-67
2022/11/12 00:03:20;;;;;;;13.38;9.68;;;;;;;5.97;100.00;103138.13;5016711;28;20111;-66
2022/11/12 00:05:48;;;;;;;13.27;9.65;;;;;;;5.91;100.00;103136.59;5027655;28;20567;-66
2022/11/12 00:08:14;;;;;;;14.40;9.63;;;;;;;5.89;100.00;103138.41;5023633;28;20057;-66
2022/11/12 00:10:41;;;;;;;14.60;10.00;;;;;;;5.90;100.00;103142.69;5030637;28;20278;-66
2022/11/12 00:13:07;;;;;;;16.52;10.88;;;;;;;5.84;100.00;103135.13;5021077;28;20049;-66
2022/11/12 00:15:34;;;;;;;14.63;10.32;;;;;;;5.84;100.00;103142.94;5015783;28;20057;-66
2022/11/12 00:18:00;;;;;;;16.20;10.60;;;;;;;5.76;100.00;103140.63;5028344;28;20053;-66
2022/11/12 00:20:27;;;;;;;16.42;10.43;;;;;;;5.74;100.00;103140.69;5019045;28;20045;-66
2022/11/12 00:22:55;;;;;;;14.85;10.52;;;;;;;5.74;100.00;103132.00;5031573;28;20052;-66
2022/11/12 00:25:22;;;;;;;15.00;10.48;;;;;;;5.71;100.00;103140.78;5020200;28;20050;-66
2022/11/12 00:27:48;;;;;;;15.88;9.80;;;;;;;5.68;100.00;103140.06;5027668;28;20049;-66
2022/11/12 00:30:15;;;;;;;14.32;9.75;;;;;;;5.68;100.00;103146.09;5025097;28;20049;-66
2022/11/12 00:32:41;;;;;;;17.73;10.55;;;;;;;5.66;100.00;103140.09;5003705;28;20049;-66
2022/11/12 00:35:08;;;;;;;17.92;11.05;;;;;;;5.66;100.00;103137.50;5013708;28;20071;-67
2022/11/12 00:37:39;;;;;;;15.23;10.27;;;;;;;5.61;100.00;103141.22;5015488;28;20054;-66
2022/11/12 00:40:06;;;;;;;17.02;11.63;;;;;;;5.64;100.00;103138.47;5022906;28;20057;-66
2022/11/12 00:42:32;;;;;;;12.65;9.73;;;;;;;5.60;100.00;103147.31;5012749;28;20053;-66
2022/11/12 00:44:59;;;;;;;16.02;10.90;;;;;;;5.61;100.00;103146.41;5010085;28;20099;-66
2022/11/12 00:47:25;;;;;;;13.80;9.90;;;;;;;5.57;100.00;103143.09;5023477;28;20061;-66
2022/11/12 00:49:51;;;;;;;14.25;10.65;;;;;;;5.57;100.00;103137.88;5018042;28;20046;-67
2022/11/12 00:52:18;;;;;;;17.30;10.20;;;;;;;5.53;100.00;103149.31;5018007;28;20496;-66
2022/11/12 00:54:44;;;;;;;15.82;10.00;;;;;;;5.53;100.00;103144.94;5022778;28;20079;-67
2022/11/12 00:57:10;;;;;;;17.40;11.18;;;;;;;5.51;100.00;103144.16;5014895;28;20107;-66
2022/11/12 00:59:37;;;;;;;14.10;10.70;;;;;;;5.49;100.00;103138.16;5009800;28;20140;-66
2022/11/12 01:02:03;;;;;;;14.23;11.02;;;;;;;5.44;100.00;103136.63;5019598;28;20062;-66
2022/11/12 01:04:29;;;;;;;13.90;11.07;;;;;;;5.38;100.00;103136.84;5024849;28;20079;-66
2022/11/12 01:06:56;;;;;;;13.35;11.25;;;;;;;5.40;100.00;103135.88;5019548;28;20053;-66
2022/11/12 01:09:22;;;;;;;12.80;10.13;;;;;;;5.39;100.00;103133.31;5020251;28;20053;-66
2022/11/12 01:11:49;;;;;;;13.48;10.63;;;;;;;5.41;100.00;103144.53;5014134;28;20049;-66
2022/11/12 01:14:15;;;;;;;15.60;10.85;;;;;;;5.38;100.00;103147.25;5026493;28;20052;-66
2022/11/12 01:16:42;;;;;;;14.00;10.55;;;;;;;5.38;100.00;103145.50;5019057;28;20053;-66
2022/11/12 01:19:10;;;;;;;14.23;10.60;;;;;;;5.43;100.00;103146.19;5017171;28;20112;-67
2022/11/12 01:21:40;;;;;;;15.63;10.63;;;;;;;5.42;100.00;103139.28;5033640;28;20122;-67
2022/11/12 01:24:07;;;;;;;13.98;10.32;;;;;;;5.44;100.00;103142.66;5017155;28;20050;-67
2022/11/12 01:26:34;;;;;;;10.82;9.65;;;;;;;5.41;100.00;103145.41;5022993;28;20778;-66
2022/11/12 01:29:00;;;;;;;11.27;9.65;;;;;;;5.39;100.00;103144.59;5009889;28;20318;-66
2022/11/12 01:31:32;;;;;;;14.73;10.25;;;;;;;5.37;100.00;103149.03;5015100;28;20054;-66
2022/11/12 01:34:01;;;;;;;14.55;10.13;;;;;;;5.34;100.00;103139.53;5016659;28;20049;-66
2022/11/12 01:36:32;;;;;;;13.40;9.25;;;;;;;5.36;100.00;103142.09;5018227;28;20049;-66
2022/11/12 01:38:58;;;;;;;13.80;9.48;;;;;;;5.29;100.00;103131.06;5024160;28;20044;-66
2022/11/12 01:41:28;;;;;;;12.98;10.00;;;;;;;5.29;100.00;103128.47;5009197;28;20049;-66
2022/11/12 01:44:21;;;;;;;13.65;9.55;;;;;;;5.26;100.00;103117.31;5000020;28;20058;-66
2022/11/12 01:47:03;;;;;;;12.02;9.45;;;;;;;5.22;100.00;103119.19;5009754;28;20049;-67
2022/11/12 01:49:34;;;;;;;12.82;9.98;;;;;;;5.20;100.00;103114.94;5025211;28;20615;-66
2022/11/12 01:52:11;;;;;;;15.45;9.85;;;;;;;5.18;100.00;103112.41;5015611;28;20050;-66
2022/11/12 01:54:38;;;;;;;10.80;8.63;;;;;;;5.15;100.00;103110.75;5017055;28;20241;-66
2022/11/12 01:57:08;;;;;;;12.70;9.82;;;;;;;5.18;100.00;103120.19;5006061;28;20899;-66
2022/11/12 01:59:39;;;;;;;12.05;8.90;;;;;;;5.24;100.00;103117.38;5009543;28;20103;-66
2022/11/12 02:02:06;;;;;;;11.90;8.82;;;;;;;5.17;100.00;103107.25;5024422;28;20418;-65
2022/11/12 02:04:34;;;;;;;13.07;9.15;;;;;;;5.19;100.00;103115.84;5011431;28;20461;-65
2022/11/12 02:07:01;;;;;;;13.65;9.02;;;;;;;5.19;100.00;103116.69;5025803;28;20049;-66
2022/11/12 02:09:29;;;;;;;13.80;9.43;;;;;;;5.18;100.00;103116.75;5000353;28;20160;-66
2022/11/12 02:11:58;;;;;;;13.68;9.30;;;;;;;5.18;100.00;103108.94;5019967;28;20053;-66
2022/11/12 02:14:24;;;;;;;11.85;8.85;;;;;;;5.15;100.00;103109.88;5005508;28;20049;-65
2022/11/12 02:16:51;;;;;;;13.35;8.68;;;;;;;5.19;100.00;103100.22;5020290;28;20054;-66
2022/11/12 02:19:18;;;;;;;11.45;8.50;;;;;;;5.11;100.00;103096.13;5020434;28;20052;-66
2022/11/12 02:21:45;;;;;;;12.95;8.80;;;;;;;5.11;100.00;103103.94;5021824;28;20057;-66
2022/11/12 02:24:11;;;;;;;11.05;8.73;;;;;;;5.03;100.00;103100.75;5020132;28;20488;-66
2022/11/12 02:26:41;;;;;;;12.70;8.10;;;;;;;5.08;100.00;103104.06;5017369;28;20056;-65
2022/11/12 02:29:08;;;;;;;11.88;8.77;;;;;;;5.06;100.00;103103.28;5020028;28;20049;-66
2022/11/12 02:31:35;;;;;;;11.30;8.75;;;;;;;5.08;100.00;103101.47;5009880;28;20111;-66
2022/11/12 02:34:02;;;;;;;12.38;9.52;;;;;;;5.01;100.00;103099.13;5033404;28;20659;-66
2022/11/12 02:36:29;;;;;;;13.20;8.52;;;;;;;5.03;100.00;103102.53;5013994;28;20077;-66
2022/11/12 02:38:56;;;;;;;11.60;8.50;;;;;;;4.98;100.00;103102.69;5018062;28;20568;-65
2022/11/12 02:41:22;;;;;;;11.20;8.55;;;;;;;4.99;100.00;103106.97;5025267;28;20057;-65
2022/11/12 02:43:49;;;;;;;12.32;8.82;;;;;;;5.01;100.00;103106.94;5024424;28;20048;-65
2022/11/12 02:46:15;;;;;;;13.40;8.98;;;;;;;5.02;100.00;103108.63;5009547;28;20111;-66
2022/11/12 02:48:42;;;;;;;11.23;8.32;;;;;;;5.00;100.00;103108.69;5017030;28;20107;-65
2022/11/12 02:51:09;;;;;;;12.13;8.57;;;;;;;4.93;100.00;103105.44;5017448;28;20111;-65
2022/11/12 02:53:35;;;;;;;11.05;8.35;;;;;;;4.89;100.00;103110.81;5029548;28;20480;-65
2022/11/12 02:56:02;;;;;;;11.65;8.35;;;;;;;4.90;100.00;103107.28;5023415;28;20210;-65
2022/11/12 02:58:29;;;;;;;11.30;8.13;;;;;;;4.88;100.00;103106.50;5028529;28;20049;-65
2022/11/12 03:00:56;;;;;;;11.57;8.52;;;;;;;4.82;100.00;103107.59;5020840;28;20083;-65
2022/11/12 03:03:23;;;;;;;12.30;8.50;;;;;;;4.82;100.00;103105.00;5024049;28;20064;-65
2022/11/12 03:05:59;;;;;;;9.48;7.75;;;;;;;4.86;100.00;103101.38;5003561;28;20064;-65
2022/11/12 03:08:25;;;;;;;11.77;7.50;;;;;;;4.87;100.00;103105.66;5031273;28;20427;-65
2022/11/12 03:10:53;;;;;;;12.52;8.90;;;;;;;4.79;100.00;103104.25;5031229;28;20137;-65
2022/11/12 03:13:20;;;;;;;12.38;7.63;;;;;;;4.78;100.00;103094.72;5019746;28;20057;-65
2022/11/12 03:15:47;;;;;;;11.55;8.23;;;;;;;4.79;100.00;103096.44;5018001;28;20096;-65
2022/11/12 03:18:13;;;;;;;10.30;8.30;;;;;;;4.74;100.00;103096.56;5017070;28;20053;-65
2022/11/12 03:20:39;;;;;;;9.73;7.78;;;;;;;4.72;100.00;103100.97;5030228;28;20052;-65
2022/11/12 03:23:08;;;;;;;10.88;7.90;;;;;;;4.70;100.00;103094.97;5018876;28;20557;-66
2022/11/12 03:25:35;;;;;;;;;;;;;;;4.70;100.00;103082.00;5022224;28;20057;-65
2022/11/12 03:28:06;;;;;;;12.02;8.50;;;;;;;4.64;100.00;103088.25;5031058;28;19924;-65
2022/11/12 03:30:36;;;;;;;9.65;8.02;;;;;;;4.61;100.00;103096.16;5010717;28;20450;-65
2022/11/12 03:33:03;;;;;;;9.55;6.80;;;;;;;4.63;100.00;103086.56;5019005;28;20567;-65
2022/11/12 03:35:31;;;;;;;9.93;6.90;;;;;;;4.66;100.00;103096.00;5033390;28;20651;-65
2022/11/12 03:37:57;;;;;;;9.27;7.35;;;;;;;4.59;100.00;103091.91;5026982;28;20107;-65
2022/11/12 03:40:24;;;;;;;11.55;7.97;;;;;;;4.58;100.00;103096.25;5029674;28;20049;-64
2022/11/12 03:42:51;;;;;;;11.98;7.30;;;;;;;4.62;100.00;103092.66;5026448;28;20045;-65
2022/11/12 03:45:19;;;;;;;9.93;7.25;;;;;;;4.64;100.00;103092.59;5016775;28;20052;-66
2022/11/12 03:47:48;;;;;;;9.73;7.15;;;;;;;4.63;100.00;103088.31;5022209;28;20049;-67
2022/11/12 03:50:15;;;;;;;;;;;;;;;4.65;100.00;103082.16;5027685;28;20049;-66
2022/11/12 03:52:47;;;;;;;9.35;6.63;;;;;;;4.67;100.00;103084.72;5014105;28;20389;-66
2022/11/12 03:55:16;;;;;;;8.90;6.53;;;;;;;4.67;100.00;103082.13;5027456;28;20453;-66
2022/11/12 03:57:43;;;;;;;9.30;6.13;;;;;;;4.61;100.00;103085.75;5012954;28;20057;-65
2022/11/12 04:00:10;;;;;;;8.45;6.50;;;;;;;4.62;100.00;103086.59;5028267;28;20062;-66
2022/11/12 04:02:37;;;;;;;7.57;6.17;;;;;;;4.61;100.00;103090.97;5029080;28;20072;-66
2022/11/12 04:10:43;;;;;;;10.20;6.40;;;;;;;4.54;100.00;103099.84;5019338;28;20057;-66
2022/11/12 04:13:28;;;;;;;11.02;6.18;;;;;;;4.52;100.00;103097.31;5019277;28;20127;-65
2022/11/12 04:21:55;;;;;;;8.95;6.53;;;;;;;4.47;100.00;103094.03;5017127;28;20053;-65
2022/11/12 04:27:13;;;;;;;9.80;6.38;;;;;;;4.45;100.00;103094.97;5023990;28;20064;-65
2022/11/12 04:32:26;;;;;;;8.82;6.88;;;;;;;4.39;100.00;103097.75;5017628;28;20747;-65
2022/11/12 04:34:53;;;;;;;10.68;6.97;;;;;;;4.37;100.00;103097.81;5011932;28;20049;-65
2022/11/12 04:37:20;;;;;;;10.35;7.30;;;;;;;4.36;100.00;103096.13;5013351;28;20495;-65
2022/11/12 04:39:49;;;;;;;9.40;7.03;;;;;;;4.38;100.00;103091.72;5028413;28;20094;-65
2022/11/12 04:45:04;;;;;;;9.00;6.78;;;;;;;4.43;100.00;103091.56;5018687;28;20510;-65
2022/11/12 04:47:36;;;;;;;8.88;6.70;;;;;;;4.45;100.00;103085.44;5036114;28;20322;-66
2022/11/12 04:50:11;;;;;;;8.90;6.35;;;;;;;4.49;100.00;103094.81;5028642;28;20048;-66
2022/11/12 04:52:38;;;;;;;8.25;6.25;;;;;;;4.47;100.00;103091.44;5027968;28;20675;-66
2022/11/12 04:55:05;;;;;;;8.18;6.00;;;;;;;4.45;100.00;103093.22;5016559;28;20057;-65
2022/11/12 04:57:31;;;;;;;8.05;6.38;;;;;;;4.42;100.00;103087.28;5019410;28;20053;-66
2022/11/12 04:59:58;;;;;;;7.53;5.65;;;;;;;4.41;100.00;103089.03;5022803;28;20049;-65
2022/11/12 05:02:24;;;;;;;8.07;5.95;;;;;;;4.41;100.00;103089.03;5017246;28;20460;-66
2022/11/12 05:04:50;;;;;;;8.93;6.38;;;;;;;4.42;100.00;103087.28;5035960;28;20049;-65
2022/11/12 05:07:17;;;;;;;8.15;6.28;;;;;;;4.32;100.00;103078.94;5020477;28;20494;-65
2022/11/12 05:09:44;;;;;;;9.35;6.38;;;;;;;4.29;100.00;103085.09;5015181;28;20440;-65
2022/11/12 05:12:10;;;;;;;7.30;5.80;;;;;;;4.31;100.00;103074.63;5024754;28;20546;-65
2022/11/12 05:14:36;;;;;;;8.13;5.97;;;;;;;4.32;100.00;103074.59;5020916;28;20049;-65
2022/11/12 05:17:03;;;;;;;9.30;5.75;;;;;;;4.34;100.00;103066.75;5016244;28;20487;-65
2022/11/12 05:19:29;;;;;;;9.48;5.93;;;;;;;4.32;100.00;103061.59;5016363;28;20068;-65
2022/11/12 05:22:05;;;;;;;8.70;6.10;;;;;;;4.32;100.00;103055.56;5022454;28;20457;-65
2022/11/12 05:24:35;;;;;;;7.25;5.53;;;;;;;4.36;100.00;103047.59;5012585;28;20049;-65
2022/11/12 05:27:10;;;;;;;8.70;6.13;;;;;;;4.34;100.00;103049.41;5016196;28;20096;-65
2022/11/12 05:29:37;;;;;;;8.40;5.72;;;;;;;4.30;100.00;103042.59;5023251;28;20095;-65
2022/11/12 05:32:04;;;;;;;7.30;5.45;;;;;;;4.33;100.00;103044.25;5018543;28;20066;-64
2022/11/12 05:34:31;;;;;;;9.73;5.90;;;;;;;4.33;100.00;103049.44;5017608;28;20057;-65
2022/11/12 05:36:58;;;;;;;6.88;5.05;;;;;;;4.34;100.00;103043.34;5011012;28;20053;-65
2022/11/12 05:39:25;;;;;;;7.35;5.28;;;;;;;4.35;100.00;103042.44;5028781;28;20048;-65
2022/11/12 05:41:51;;;;;;;6.60;5.43;;;;;;;4.37;100.00;103053.63;5023356;28;20053;-65
2022/11/12 05:44:37;;;;;;;8.95;5.45;;;;;;;4.30;100.00;103060.78;5016665;28;20708;-65
2022/11/12 05:47:03;;;;;;;7.03;5.18;;;;;;;4.28;100.00;103057.41;5004381;28;20417;-65
2022/11/12 05:49:30;;;;;;;8.48;5.30;;;;;;;4.23;100.00;103048.91;5021579;28;20099;-65
2022/11/12 05:51:56;;;;;;;6.50;5.22;;;;;;;4.25;100.00;103051.44;5025330;28;20054;-65
2022/11/12 05:54:23;;;;;;;8.13;5.30;;;;;;;4.18;100.00;103052.56;5012211;28;20053;-65
2022/11/12 05:56:52;;;;;;;7.22;5.70;;;;;;;4.22;100.00;103057.59;5025569;28;20087;-65
2022/11/12 05:59:18;;;;;;;6.82;5.00;;;;;;;4.23;100.00;103061.03;5019388;28;20065;-65
2022/11/12 06:01:45;;;;;;;10.00;5.22;;;;;;;4.20;100.00;103062.00;5029530;28;20394;-65
2022/11/12 06:04:13;;;;;;;7.93;4.90;;;;;;;4.27;100.00;103068.69;5016064;28;20050;-65
2022/11/12 06:06:40;;;;;;;7.82;4.75;;;;;;;4.26;100.00;103064.41;5023477;28;20167;-66
2022/11/12 06:09:08;;;;;;;6.93;5.18;;;;;;;4.24;100.00;103054.97;5017005;28;20111;-65
2022/11/12 06:11:35;;;;;;;6.25;5.03;;;;;;;4.23;100.00;103064.47;5009358;28;20049;-65
2022/11/12 06:14:02;;;;;;;8.30;5.35;;;;;;;4.23;100.00;103059.28;5018054;28;20167;-65
2022/11/12 06:16:30;;;;;;;7.65;5.07;;;;;;;4.23;100.00;103061.03;5019319;28;20060;-65
2022/11/12 06:18:57;;;;;;;7.00;4.97;;;;;;;4.24;100.00;103065.34;5024981;28;20417;-65
2022/11/12 06:21:23;;;;;;;6.55;4.50;;;;;;;4.18;100.00;103063.81;5010987;28;20054;-65
2022/11/12 06:23:55;;;;;;;6.95;5.00;;;;;;;4.24;100.00;103074.00;5017847;28;20096;-65
2022/11/12 06:26:23;;;;;;;6.72;4.75;;;;;;;4.21;100.00;103068.88;5013180;28;20107;-65
2022/11/12 06:28:49;;;;;;;7.25;4.93;;;;;;;4.22;100.00;103070.59;5015615;28;20072;-67
2022/11/12 06:31:17;;;;;;;7.50;5.00;;;;;;;4.22;100.00;103073.19;5010726;28;20051;-65
2022/11/12 06:33:44;;;;;;;7.72;5.38;;;;;;;4.21;100.00;103081.03;5016898;28;20060;-65
2022/11/12 06:36:12;;;;;;;7.13;4.95;;;;;;;4.24;100.00;103076.59;5046581;28;20091;-65
2022/11/12 06:38:40;;;;;;;7.80;5.13;;;;;;;4.21;100.00;103078.44;5016797;28;20054;-65
2022/11/12 06:41:08;;;;;;;7.57;5.32;;;;;;;4.16;100.00;103074.22;5026488;28;20110;-65
2022/11/12 06:43:35;;;;;;;7.47;5.13;;;;;;;4.12;100.00;103067.44;5022059;28;20057;-65
2022/11/12 06:46:05;;;;;;;8.82;5.18;;;;;;;4.13;100.00;103073.47;5022608;28;20468;-65
2022/11/12 06:48:31;;;;;;;6.90;5.00;;;;;;;4.09;100.00;103077.91;5033569;28;20740;-65
2022/11/12 06:51:04;;;;;;;7.40;4.78;;;;;;;4.16;100.00;103073.38;5021684;28;20053;-66
2022/11/12 06:53:31;;;;;;;7.78;5.75;;;;;;;4.11;100.00;103073.53;5021963;28;20100;-65
2022/11/12 06:56:01;;;;;;;8.00;5.68;;;;;;;4.10;100.00;103065.81;5023797;28;20045;-65
2022/11/12 06:58:28;;;;;;;7.18;4.80;;;;;;;4.10;100.00;103071.84;5024624;28;20516;-65
2022/11/12 07:00:55;;;;;;;7.57;4.90;;;;;;;4.12;100.00;103083.03;5021120;28;20053;-65
2022/11/12 07:03:21;;;;;;;9.93;5.40;;;;;;;4.14;100.00;103073.44;5031366;28;20049;-65
2022/11/12 07:05:48;;;;;;;6.78;4.90;;;;;;;4.12;100.00;103083.03;5020367;28;20049;-65
2022/11/12 07:08:14;;;;;;;8.52;6.25;;;;;;;4.12;100.00;103095.19;5014154;28;20445;-65
2022/11/12 07:10:40;;;;;;;7.65;6.03;;;;;;;4.12;100.00;103093.41;5029795;28;20046;-66
2022/11/12 07:13:07;;;;;;;9.18;6.28;;;;;;;4.15;100.00;103089.84;5019290;28;20124;-65
2022/11/12 07:15:33;;;;;;;9.50;6.28;;;;;;;4.15;100.00;103093.31;5030389;28;20066;-65
2022/11/12 07:17:59;;;;;;;9.30;5.68;;;;;;;4.16;100.00;103097.63;5021761;28;20046;-65
2022/11/12 07:20:26;;;;;;;8.25;5.63;;;;;;;4.14;100.00;103090.78;5024006;28;20115;-65
2022/11/12 07:22:52;;;;;;;8.63;5.25;;;;;;;4.14;100.00;103093.38;5017884;28;20053;-66
2022/11/12 07:25:19;;;;;;;7.75;5.53;;;;;;;4.19;100.00;103094.06;5023357;28;20057;-65
2022/11/12 07:27:46;;;;;;;7.78;4.95;;;;;;;4.20;100.00;103093.19;5032545;28;20495;-66
2022/11/12 07:30:12;;;;;;;7.13;4.65;;;;;;;4.21;100.00;103094.00;5021762;28;20049;-65
2022/11/12 07:32:39;;;;;;;8.00;6.03;;;;;;;4.22;100.00;103099.16;5032534;28;20060;-65
2022/11/12 07:35:12;;;;;;;6.80;5.00;;;;;;;4.22;100.00;103099.16;5004859;28;20054;-65
2022/11/12 07:37:38;;;;;;;8.35;5.60;;;;;;;4.27;100.00;103097.28;5026540;28;20042;-65
2022/11/12 07:40:05;;;;;;;6.82;4.97;;;;;;;4.34;100.00;103106.56;5033969;28;20053;-65
2022/11/12 07:42:33;;;;;;;7.90;5.40;;;;;;;4.36;100.00;103103.91;5014206;28;20091;-65
2022/11/12 07:45:00;;;;;;;10.23;5.95;;;;;;;4.41;100.00;103102.03;5022710;28;20060;-65
2022/11/12 07:47:26;;;;;;;8.40;5.45;;;;;;;4.44;100.00;103094.13;5016029;28;20100;-65
2022/11/12 07:49:53;;;;;;;9.85;5.88;;;;;;;4.46;100.00;103094.91;5013856;28;20501;-65
2022/11/12 07:52:20;;;;;;;8.25;5.75;;;;;;;4.53;100.00;103105.97;5021968;28;20052;-65
2022/11/12 07:54:46;;;;;;;8.10;5.68;;;;;;;4.53;100.00;103096.41;5022081;28;20111;-65
2022/11/12 07:57:13;;;;;;;10.05;5.28;;;;;;;4.58;100.00;103105.81;5030296;28;20053;-65
2022/11/12 07:59:39;;;;;;;7.75;5.50;;;;;;;4.65;100.00;103115.94;5013115;28;20057;-65
2022/11/12 08:02:11;;;;;;;8.70;6.35;;;;;;;4.67;100.00;103108.94;5024712;28;20142;-65
2022/11/12 08:04:37;;;;;;;11.07;6.32;;;;;;;4.71;100.00;103114.91;5012010;28;20076;-65
2022/11/12 08:07:04;;;;;;;7.55;5.72;;;;;;;4.75;100.00;103113.88;5023886;28;20057;-66
2022/11/12 08:09:30;;;;;;;10.75;6.10;;;;;;;4.79;100.00;103112.88;5029410;28;20049;-65
2022/11/12 08:11:57;;;;;;;8.82;5.55;;;;;;;4.85;100.00;103112.66;5012102;28;20054;-65
2022/11/12 08:14:23;;;;;;;8.23;5.70;;;;;;;4.91;100.00;103104.66;5020202;28;20049;-65
2022/11/12 08:16:50;;;;;;;8.07;6.30;;;;;;;4.99;100.00;103112.19;5028745;28;20102;-65
2022/11/12 08:19:16;;;;;;;8.70;6.32;;;;;;;5.03;100.00;103118.97;5025118;28;20139;-65
2022/11/12 08:21:43;;;;;;;11.90;7.25;;;;;;;5.08;100.00;103116.22;5010928;28;20049;-65
2022/11/12 08:24:09;;;;;;;10.07;7.13;;;;;;;5.15;100.00;103134.19;5016689;28;20111;-65
2022/11/12 08:26:36;;;;;;;8.65;6.03;;;;;;;5.21;100.00;103125.28;5022462;28;20045;-65
2022/11/12 08:29:03;;;;;;;10.20;6.70;;;;;;;5.28;100.00;103129.38;5023627;28;20449;-65
2022/11/12 08:31:34;;;;;;;10.40;6.78;;;;;;;5.34;100.00;103136.09;5021704;28;20049;-65
2022/11/12 08:34:10;;;;;;;12.07;7.10;;;;;;;5.39;100.00;103134.19;5012836;28;20053;-65
2022/11/12 08:36:38;;;;;;;10.73;7.22;;;;;;;5.44;100.00;103132.25;5006943;28;20042;-65
2022/11/12 08:39:04;;;;;;;11.60;7.05;;;;;;;5.50;100.00;103133.78;5019554;28;20061;-65
2022/11/12 08:41:31;;;;;;;10.23;7.50;;;;;;;5.54;100.00;103135.38;5022643;28;20053;-65
2022/11/12 08:43:58;;;;;;;15.95;7.93;;;;;;;5.59;100.00;103136.06;5028824;28;20049;-65
2022/11/12 08:46:30;;;;;;;12.70;7.55;;;;;;;5.65;100.00;103145.41;5022676;28;20049;-65
2022/11/12 08:48:57;;;;;;;14.15;7.38;;;;;;;5.71;100.00;103151.22;5031086;28;20048;-65
2022/11/12 08:51:23;;;;;;;15.15;8.48;;;;;;;5.74;100.00;103148.50;5008434;28;20053;-65
2022/11/12 08:53:49;;;;;;;13.68;8.55;;;;;;;5.82;100.00;103150.81;5023286;28;20056;-65
2022/11/12 08:56:16;;;;;;;13.25;8.15;;;;;;;5.88;100.00;103150.59;5022135;28;20077;-65
2022/11/12 08:58:42;;;;;;;11.00;7.95;;;;;;;5.93;100.00;103147.78;5030631;28;20091;-65
2022/11/12 09:01:09;;;;;;;12.70;7.60;;;;;;;5.98;100.00;103140.69;5040543;28;20049;-65
2022/11/12 09:03:35;;;;;;;15.32;8.73;;;;;;;6.04;100.00;103139.63;5023403;28;20048;-65
2022/11/12 09:06:04;;;;;;;12.27;7.65;;;;;;;6.13;100.00;103141.84;5016842;28;20053;-65
2022/11/12 09:08:32;;;;;;;14.45;8.55;;;;;;;6.19;100.00;103144.19;5021740;28;20943;-66
2022/11/12 09:10:58;;;;;;;13.65;8.52;;;;;;;6.22;100.00;103141.47;5024791;28;20489;-66
2022/11/12 09:13:25;;;;;;;14.13;8.30;;;;;;;6.27;100.00;103147.38;5008163;28;20559;-65
2022/11/12 09:15:51;;;;;;;10.68;7.90;;;;;;;6.33;100.00;103143.63;5022729;28;20046;-66
2022/11/12 09:18:18;;;;;;;15.05;8.55;;;;;;;6.37;100.00;103146.97;5027615;28;20049;-65
2022/11/12 09:20:44;;;;;;;12.60;8.10;;;;;;;6.45;100.00;103144.91;5017909;28;20565;-65
2022/11/12 09:23:14;;;;;;;17.23;8.65;;;;;;;6.54;100.00;103150.59;5022594;28;20049;-65
2022/11/12 09:25:41;;;;;;;14.18;8.85;;;;;;;6.58;100.00;103143.50;5008147;28;20049;-65
2022/11/12 09:28:16;;;;;;;14.50;9.32;;;;;;;6.68;100.00;103147.44;5013440;28;20111;-65
2022/11/12 09:30:45;;;;;;;12.85;8.82;;;;;;;6.74;100.00;103151.53;5014482;28;20049;-66
2022/11/12 09:33:18;;;;;;;14.05;8.75;;;;;;;6.83;100.00;103158.13;5011586;28;20037;-66
2022/11/12 09:35:45;;;;;;;12.70;7.70;;;;;;;6.90;100.00;103149.97;5014377;28;20104;-66
2022/11/12 09:38:13;;;;;;;13.18;8.98;;;;;;;6.97;100.00;103153.16;5011630;28;20053;-65
2022/11/12 09:40:52;;;;;;;12.73;7.72;;;;;;;7.07;100.00;103148.41;5025560;28;20514;-65
2022/11/12 09:43:29;;;;;;;11.57;7.85;;;;;;;7.11;100.00;103148.22;5017783;28;20045;-65
2022/11/12 09:46:01;;;;;;;15.07;8.55;;;;;;;7.15;100.00;103150.69;5030573;28;20111;-65
2022/11/12 09:48:55;;;;;;;16.02;10.13;;;;;;;7.22;100.00;103155.56;5018989;28;20049;-66
2022/11/12 09:51:27;;;;;;;14.20;9.07;;;;;;;7.27;100.00;103163.19;5018152;28;20441;-65
2022/11/12 09:53:55;;;;;;;12.52;8.45;;;;;;;7.29;100.00;103156.13;5009684;28;20061;-65
2022/11/12 09:56:22;;;;;;;;;;;;;;;7.38;100.00;103155.72;5026860;28;20056;-65
2022/11/12 09:58:49;;;;;;;11.77;8.23;;;;;;;7.38;100.00;103160.97;5019001;28;19952;-65
2022/11/12 10:01:22;;;;;;;16.38;9.38;;;;;;;7.45;100.00;103151.94;5005547;28;20094;-66
2022/11/12 10:04:07;;;;;;;11.45;8.80;;;;;;;7.58;100.00;103154.00;5023337;28;20062;-66
2022/11/12 10:06:44;;;;;;;15.50;8.98;;;;;;;7.67;100.00;103145.75;5016364;28;20045;-66
2022/11/12 10:09:20;;;;;;;12.27;8.38;;;;;;;7.77;100.00;103141.78;5030867;28;20541;-65
2022/11/12 10:14:51;;;;;;;13.00;8.77;;;;;;;7.97;100.00;103129.56;5021562;28;20049;-66
2022/11/12 10:17:34;;;;;;;8.50;5.57;;;;;;;8.05;100.00;103136.09;5020390;28;20053;-66
2022/11/12 10:20:24;;;;;;;15.63;9.05;;;;;;;8.17;100.00;103131.19;5025766;28;20069;-65
2022/11/12 10:23:03;;;;;;;11.23;7.28;;;;;;;8.28;100.00;103132.38;5023786;28;20080;-66
2022/11/12 10:25:31;;;;;;;13.73;8.20;;;;;;;8.36;100.00;103131.16;5025999;28;20050;-66
2022/11/12 10:27:59;;;;;;;12.63;9.13;;;;;;;8.41;100.00;103132.66;5022450;28;20534;-66
2022/11/12 10:30:25;;;;;;;14.63;8.97;;;;;;;8.47;100.00;103124.50;5008097;28;20497;-67
2022/11/12 10:32:52;;;;;;;13.30;8.55;;;;;;;8.62;100.00;103125.50;5037262;28;20460;-66
2022/11/12 10:35:21;;;;;;;10.77;8.27;;;;;;;8.77;100.00;103123.06;5019847;28;20498;-66
2022/11/12 10:38:03;;;;;;;13.80;8.40;;;;;;;8.86;100.00;103118.19;5025895;28;20057;-66
2022/11/12 10:40:48;;;;;;;9.40;7.10;;;;;;;9.04;100.00;103118.16;5025868;28;20088;-66
2022/11/12 10:43:14;;;;;;;14.95;9.43;;;;;;;9.09;100.00;103117.00;5022063;28;20498;-65
2022/11/12 10:45:45;;;;;;;11.43;8.57;;;;;;;9.22;100.00;103117.19;5024726;28;20510;-68
2022/11/12 10:48:27;;;;;;;13.60;9.32;;;;;;;9.35;100.00;103112.16;5023545;28;20452;-67
2022/11/12 10:50:54;;;;;;;11.88;9.48;;;;;;;9.41;100.00;103109.19;5024480;28;20057;-66
2022/11/12 10:53:35;;;;;;;15.93;9.27;;;;;;;9.61;100.00;103110.72;5023540;28;20061;-65
2022/11/12 10:56:04;;;;;;;12.50;8.80;;;;;;;9.72;100.00;103110.13;5025347;28;20052;-65
2022/11/12 10:58:31;;;;;;;12.35;8.65;;;;;;;9.83;100.00;103104.31;5018444;28;20076;-65
2022/11/12 11:01:12;;;;;;;13.57;9.30;;;;;;;9.98;100.00;103100.81;5026229;28;20474;-65
2022/11/12 11:03:54;;;;;;;12.70;9.23;;;;;;;10.11;100.00;103095.72;5028301;28;20076;-67
2022/11/12 11:06:24;;;;;;;11.43;8.73;;;;;;;10.23;100.00;103088.91;5022937;28;20108;-66
2022/11/12 11:08:53;;;;;;;15.98;9.18;;;;;;;10.35;100.00;103085.63;5013340;28;20041;-66
2022/11/12 11:11:28;;;;;;;14.05;8.77;;;;;;;10.49;100.00;103085.66;5013890;28;20512;-66
2022/11/12 11:14:16;;;;;;;12.32;8.40;;;;;;;10.61;100.00;103085.88;5033897;28;20045;-65
2022/11/12 11:16:58;;;;;;;9.82;8.23;;;;;;;10.80;100.00;103075.09;5031392;28;20485;-66
2022/11/12 11:19:50;;;;;;;12.18;8.90;;;;;;;10.99;100.00;103080.91;5034878;28;20113;-66
2022/11/12 11:22:41;;;;;;;13.75;8.00;;;;;;;11.10;100.00;103074.19;5013702;28;20049;-66
2022/11/12 11:25:17;;;;;;;14.25;9.50;;;;;;;11.22;100.00;103069.00;5020685;28;20510;-66
2022/11/12 11:28:18;;;;;;;11.52;8.63;;;;;;;11.38;100.00;103066.25;5020414;28;20127;-66
2022/11/12 11:31:20;;;;;;;11.90;7.85;;;;;;;11.55;100.00;103067.00;5026491;28;20480;-66
2022/11/12 11:34:10;;;;;;;11.93;8.75;;;;;;;11.66;100.00;103054.84;5011369;28;20761;-66
2022/11/12 11:37:03;;;;;;;9.55;7.50;;;;;;;11.77;100.00;103046.25;5021511;28;20490;-65
2022/11/12 11:39:50;;;;;;;12.38;8.40;;;;;;;11.91;100.00;103049.81;5012461;28;20091;-66
2022/11/12 11:42:46;;;;;;;12.43;8.57;;;;;;;12.05;100.00;103042.69;5024892;28;20409;-66
2022/11/12 11:45:38;;;;;;;11.85;7.53;;;;;;;12.18;100.00;103047.13;5018265;28;20046;-66
2022/11/12 11:48:07;;;;;;;10.02;7.85;;;;;;;12.29;100.00;103047.25;5036537;28;20464;-66
2022/11/12 11:50:37;;;;;;;10.98;7.72;;;;;;;12.40;100.00;103049.16;5021428;28;20663;-67
2022/11/12 11:53:19;;;;;;;10.45;7.32;;;;;;;12.53;100.00;103039.47;5013999;28;20050;-67